YBWP Airport Information

Runway Information
Runway 12 Length 5397 ft width 98 ft
Elevation 57 ft Threshold 0 ft Heading 124
Runway 30 Length 5397 ft Width 98 ft
Elevation 63 ft Threshold 0 ft Heading 304
Airport Frequencies
Type CTAF Name CTAF Frequency 126.7 MHZ
Type RDO Name BRISBANE C Frequency 122.1 MHZ
Airport Navaids
Type VOR-DME Name Weipa Frequency 112800 KHZ
Type NDB Name Weipa Frequency 377 KHZ
Airport Weather Information & NOTAM
ADDS - METARS form results

(0535 UTC 16 October 2021)
Data provider http://aviationweather.gov/metar/data/
 
METAR text: YBWP 160500Z AUTO 28012KT 9999 // SCT070 34/22 Q1006
Conditions at: YBWP (WEIPA CITY , AU) observed 0500 UTC 16 October 2021
Temperature: 34.0°C (93°F)
Dewpoint: 22.0°C (72°F) [RH = 50%]
Pressure (altimeter): 29.70 inches Hg (1006.0 mb)
Winds: from the W (280 degrees) at 14 MPH (12 knots; 6.2 m/s)
Visibility: 6 or more miles (10+ km)
Ceiling: at least 12,000 feet AGL
Clouds: scattered clouds at 7000 feet AGL
Weather: no significant weather observed at this time